createdAt,value
2018-07-07T00:00:31.142Z,3.40
2018-07-07T00:03:00.142Z,3.20
2018-07-07T00:05:29.131Z,3.13
2018-07-07T00:07:58.101Z,3.40
2018-07-07T00:10:27.072Z,2.97
2018-07-07T00:12:56.082Z,3.20
2018-07-07T00:15:25.045Z,3.20
2018-07-07T00:17:54.075Z,3.43
2018-07-07T00:20:23.326Z,3.83
2018-07-07T00:22:52.232Z,3.17
2018-07-07T00:25:21.763Z,3.50
2018-07-07T00:27:51.027Z,2.73
2018-07-07T00:30:20.249Z,3.97
2018-07-07T00:32:49.255Z,2.80
2018-07-07T00:35:18.244Z,2.53
2018-07-07T00:37:47.298Z,3.13
2018-07-07T00:40:16.322Z,3.50
2018-07-07T00:42:45.288Z,2.93
2018-07-07T00:45:14.289Z,3.60
2018-07-07T00:47:43.337Z,2.60
2018-07-07T00:50:12.105Z,4.10
2018-07-07T00:52:40.984Z,2.97
2018-07-07T00:55:10.444Z,3.13
2018-07-07T00:57:39.412Z,2.40
2018-07-07T01:00:08.569Z,2.70
2018-07-07T01:02:37.473Z,2.70
2018-07-07T01:05:06.418Z,3.03
2018-07-07T01:07:35.381Z,2.60
2018-07-07T01:10:04.742Z,2.63
2018-07-07T01:12:33.633Z,2.20
2018-07-07T01:15:02.566Z,3.00
2018-07-07T01:17:31.500Z,2.40
2018-07-07T01:20:01.573Z,2.67
2018-07-07T01:22:30.518Z,2.60
2018-07-07T01:24:59.474Z,2.40
2018-07-07T01:27:28.647Z,2.70
2018-07-07T01:29:57.693Z,2.20
2018-07-07T01:32:26.702Z,2.87
2018-07-07T01:34:55.907Z,2.43
2018-07-07T01:37:24.859Z,2.90
2018-07-07T01:39:53.873Z,2.40
2018-07-07T01:42:23.082Z,2.30
2018-07-07T01:44:52.097Z,2.60
2018-07-07T01:47:20.842Z,2.43
2018-07-07T01:49:49.664Z,2.67
2018-07-07T01:52:18.589Z,2.90
2018-07-07T01:54:47.628Z,2.50
2018-07-07T01:57:16.770Z,2.50
2018-07-07T01:59:46.286Z,3.00
2018-07-07T02:02:15.283Z,2.63
2018-07-07T02:04:44.428Z,2.40
2018-07-07T02:07:13.159Z,2.57
2018-07-07T02:09:41.888Z,2.90
2018-07-07T02:12:10.791Z,3.10
2018-07-07T02:14:39.866Z,2.67
2018-07-07T02:17:08.843Z,2.40
2018-07-07T02:19:37.904Z,2.23
2018-07-07T02:22:06.972Z,2.57
2018-07-07T02:24:35.892Z,2.93
2018-07-07T02:27:04.640Z,2.90
2018-07-07T02:29:33.568Z,2.67
2018-07-07T02:32:02.574Z,2.07
2018-07-07T02:34:31.547Z,2.47
2018-07-07T02:37:00.545Z,2.40
2018-07-07T02:39:29.705Z,2.60
2018-07-07T02:41:58.678Z,2.10
2018-07-07T02:44:27.637Z,3.27
2018-07-07T02:46:56.662Z,2.50
2018-07-07T02:49:25.632Z,2.30
2018-07-07T02:51:55.126Z,2.30
2018-07-07T02:54:24.066Z,2.60
2018-07-07T02:56:53.013Z,2.10
2018-07-07T02:59:22.226Z,2.40
2018-07-07T03:01:51.152Z,2.50
2018-07-07T03:04:20.229Z,3.07
2018-07-07T03:06:49.160Z,2.43
2018-07-07T03:09:18.307Z,2.70
2018-07-07T03:11:47.285Z,2.40
2018-07-07T03:14:16.261Z,2.57
2018-07-07T03:16:45.331Z,2.27
2018-07-07T03:19:14.383Z,2.50
2018-07-07T03:21:43.084Z,2.63
2018-07-07T03:24:11.923Z,2.60
2018-07-07T03:26:40.897Z,3.17
2018-07-07T03:29:10.098Z,3.00
2018-07-07T03:31:39.078Z,2.90
2018-07-07T03:34:08.162Z,2.87
2018-07-07T03:36:37.184Z,2.97
2018-07-07T03:39:07.020Z,2.80
2018-07-07T03:41:35.951Z,2.77
2018-07-07T03:44:05.070Z,2.83
2018-07-07T03:46:34.027Z,2.80
2018-07-07T03:49:03.147Z,3.07
2018-07-07T03:51:32.127Z,3.13
2018-07-07T03:54:01.058Z,2.90
2018-07-07T03:56:29.846Z,2.80
2018-07-07T03:58:58.745Z,2.70
2018-07-07T04:01:27.749Z,2.80
2018-07-07T04:03:56.716Z,3.10
2018-07-07T04:06:25.712Z,3.10
2018-07-07T04:08:54.723Z,3.40
2018-07-07T04:11:24.133Z,3.00
2018-07-07T04:13:53.415Z,3.13
2018-07-07T04:16:22.590Z,3.90
2018-07-07T04:18:51.541Z,3.03
2018-07-07T04:21:20.781Z,3.20
2018-07-07T04:23:49.762Z,3.20
2018-07-07T04:26:18.809Z,3.03
2018-07-07T04:28:47.811Z,3.83
2018-07-07T04:31:16.857Z,2.83
2018-07-07T04:33:45.785Z,2.70
2018-07-07T04:36:14.781Z,2.87
2018-07-07T04:38:43.846Z,3.13
2018-07-07T04:41:12.784Z,2.97
2018-07-07T04:43:41.894Z,3.20
2018-07-07T04:46:11.027Z,3.13
2018-07-07T04:48:40.027Z,2.80
2018-07-07T04:51:09.094Z,2.83
2018-07-07T04:53:38.065Z,2.73
2018-07-07T04:56:07.044Z,3.17
2018-07-07T04:58:36.096Z,2.47
2018-07-07T05:01:05.079Z,2.77
2018-07-07T05:03:34.065Z,2.77
2018-07-07T05:06:03.029Z,3.10
2018-07-07T05:08:32.270Z,3.20
2018-07-07T05:11:01.351Z,2.90
2018-07-07T05:13:30.425Z,2.73
2018-07-07T05:15:59.950Z,2.87
2018-07-07T05:18:28.917Z,2.90
2018-07-07T05:20:57.941Z,2.90
2018-07-07T05:23:26.889Z,2.50
2018-07-07T05:25:55.879Z,2.90
2018-07-07T05:28:24.864Z,2.70
2018-07-07T05:30:53.847Z,3.13
2018-07-07T05:33:22.906Z,2.53
2018-07-07T05:35:52.543Z,2.50
2018-07-07T05:38:21.579Z,3.10
2018-07-07T05:40:50.503Z,2.67
2018-07-07T05:43:19.494Z,3.00
2018-07-07T05:45:49.555Z,2.77
2018-07-07T05:48:18.566Z,2.77
2018-07-07T05:50:47.650Z,2.80
2018-07-07T05:53:16.659Z,2.80
2018-07-07T05:55:45.881Z,3.00
2018-07-07T05:58:14.849Z,2.60
2018-07-07T06:00:43.576Z,2.63
2018-07-07T06:03:12.699Z,3.27
2018-07-07T06:05:41.666Z,3.33
2018-07-07T06:08:10.730Z,2.77
2018-07-07T06:10:39.686Z,2.37
2018-07-07T06:13:08.646Z,3.37
2018-07-07T06:15:37.648Z,2.30
2018-07-07T06:18:06.691Z,2.07
2018-07-07T06:20:35.931Z,2.70
2018-07-07T06:23:04.993Z,2.67
2018-07-07T06:25:34.227Z,2.23
2018-07-07T06:28:04.821Z,2.30
2018-07-07T06:30:33.789Z,2.67
2018-07-07T06:33:02.728Z,2.80
2018-07-07T06:35:32.010Z,3.13
2018-07-07T06:38:00.950Z,2.27
2018-07-07T06:40:29.906Z,2.13
2018-07-07T06:42:58.865Z,2.23
2018-07-07T06:45:27.832Z,2.40
2018-07-07T06:47:56.814Z,1.93
2018-07-07T06:50:25.774Z,2.00
2018-07-07T06:52:54.767Z,6.27
2018-07-07T06:55:23.822Z,2.30
2018-07-07T06:57:52.572Z,2.47
2018-07-07T07:00:21.473Z,1.90
2018-07-07T07:02:50.457Z,2.30
2018-07-07T07:05:19.487Z,1.87
2018-07-07T07:07:48.643Z,1.87
2018-07-07T07:10:17.572Z,1.70
2018-07-07T07:12:46.540Z,1.87
2018-07-07T07:15:15.477Z,2.20
2018-07-07T07:17:44.458Z,2.07
2018-07-07T07:20:13.449Z,1.83
2018-07-07T07:22:42.531Z,1.83
2018-07-07T07:25:11.630Z,1.93
2018-07-07T07:27:40.572Z,1.77
2018-07-07T07:30:10.066Z,2.10
2018-07-07T07:32:39.089Z,2.10
2018-07-07T07:35:08.130Z,2.50
2018-07-07T07:37:37.468Z,2.20
2018-07-07T07:40:06.700Z,1.80
2018-07-07T07:42:36.092Z,1.87
2018-07-07T07:45:05.115Z,1.90
2018-07-07T07:47:34.129Z,2.17
2018-07-07T07:50:03.033Z,2.23
2018-07-07T07:52:32.049Z,2.00
2018-07-07T07:55:00.977Z,2.10
2018-07-07T07:57:29.922Z,2.67
2018-07-07T07:59:59.689Z,1.97
2018-07-07T08:02:28.884Z,2.27
2018-07-07T08:04:59.315Z,3.00
2018-07-07T08:07:29.222Z,2.30
2018-07-07T08:09:58.649Z,2.10
2018-07-07T08:12:27.955Z,2.27
2018-07-07T08:14:56.753Z,2.30
2018-07-07T08:17:25.645Z,2.40
2018-07-07T08:19:54.642Z,2.57
2018-07-07T08:22:23.676Z,2.40
2018-07-07T08:24:52.608Z,2.53
2018-07-07T08:27:21.577Z,2.57
2018-07-07T08:29:50.567Z,2.23
2018-07-07T08:32:19.512Z,2.53
2018-07-07T08:34:48.309Z,2.73
2018-07-07T08:37:17.147Z,2.23
2018-07-07T08:39:46.749Z,2.27
2018-07-07T08:42:16.193Z,2.73
2018-07-07T08:44:45.563Z,2.53
2018-07-07T08:47:14.997Z,2.70
2018-07-07T08:49:44.626Z,2.53
2018-07-07T08:52:13.647Z,2.27
2018-07-07T08:54:42.613Z,2.10
2018-07-07T08:57:11.698Z,2.50
2018-07-07T08:59:40.601Z,2.40
2018-07-07T09:02:09.634Z,2.40
2018-07-07T09:04:38.598Z,2.37
2018-07-07T09:07:07.602Z,2.70
2018-07-07T09:09:36.685Z,2.80
2018-07-07T09:12:06.042Z,2.27
2018-07-07T09:14:35.136Z,2.57
2018-07-07T09:17:03.839Z,2.30
2018-07-07T09:19:32.759Z,2.90
2018-07-07T09:22:01.811Z,2.27
2018-07-07T09:24:31.853Z,2.50
2018-07-07T09:27:00.853Z,2.30
2018-07-07T09:29:29.810Z,2.50
2018-07-07T09:31:58.801Z,2.33
2018-07-07T09:34:27.925Z,2.30
2018-07-07T09:36:56.954Z,2.20
2018-07-07T09:39:25.898Z,2.60
2018-07-07T09:41:54.930Z,2.70
2018-07-07T09:44:23.937Z,2.40
2018-07-07T09:46:52.675Z,2.73
2018-07-07T09:49:21.582Z,2.57
2018-07-07T09:51:50.554Z,2.57
2018-07-07T09:54:20.598Z,2.50
2018-07-07T09:56:49.316Z,2.87
2018-07-07T09:59:18.305Z,3.20
2018-07-07T10:01:47.294Z,2.43
2018-07-07T10:04:16.221Z,2.60
2018-07-07T10:06:45.221Z,2.33
2018-07-07T10:09:14.254Z,2.80
2018-07-07T10:11:43.543Z,3.17
2018-07-07T10:14:12.589Z,3.03
2018-07-07T10:16:41.717Z,2.20
2018-07-07T10:19:10.805Z,2.20
2018-07-07T10:21:39.912Z,2.43
2018-07-07T10:24:09.697Z,2.33
2018-07-07T10:26:38.744Z,2.47
2018-07-07T10:29:07.883Z,2.43
2018-07-07T10:31:37.309Z,2.53
2018-07-07T10:34:06.490Z,2.23
2018-07-07T10:36:35.669Z,2.13
2018-07-07T10:39:05.726Z,2.27
2018-07-07T10:41:35.781Z,2.50
2018-07-07T10:44:06.026Z,2.60
2018-07-07T10:46:35.298Z,2.73
2018-07-07T10:49:04.230Z,2.40
2018-07-07T10:51:33.231Z,2.43
2018-07-07T10:54:02.215Z,2.70
2018-07-07T10:56:31.206Z,2.43
2018-07-07T10:59:00.196Z,2.10
2018-07-07T11:01:29.450Z,2.37
2018-07-07T11:03:58.713Z,1.83
2018-07-07T11:06:27.809Z,2.30
2018-07-07T11:08:56.513Z,2.20
2018-07-07T11:11:25.366Z,2.30
2018-07-07T11:13:54.414Z,1.80
2018-07-07T11:16:23.358Z,1.90
2018-07-07T11:18:52.315Z,2.20
2018-07-07T11:21:21.778Z,1.93
2018-07-07T11:23:51.036Z,2.00
2018-07-07T11:26:19.786Z,2.10
2018-07-07T11:28:48.635Z,2.03
2018-07-07T11:31:17.983Z,2.00
2018-07-07T11:33:47.297Z,1.83
2018-07-07T11:36:16.565Z,1.77
2018-07-07T11:38:45.533Z,1.60
2018-07-07T11:41:18.465Z,1.93
2018-07-07T11:43:48.118Z,2.20
2018-07-07T11:46:17.544Z,1.60
2018-07-07T11:48:46.490Z,1.67
2018-07-07T11:51:15.498Z,1.67
2018-07-07T11:53:44.466Z,1.80
2018-07-07T11:56:13.592Z,2.17
2018-07-07T11:58:42.556Z,1.80
2018-07-07T12:01:11.525Z,2.80
2018-07-07T12:03:40.826Z,2.00
2018-07-07T12:06:09.934Z,1.90
2018-07-07T12:08:39.028Z,1.70
2018-07-07T12:11:08.192Z,2.10
2018-07-07T12:13:37.252Z,2.07
2018-07-07T12:16:06.557Z,1.80
2018-07-07T12:18:35.613Z,2.20
2018-07-07T12:21:04.759Z,2.37
2018-07-07T12:23:33.800Z,2.00
2018-07-07T12:26:02.843Z,2.53
2018-07-07T12:28:31.862Z,1.90
2018-07-07T12:31:01.325Z,2.20
2018-07-07T12:33:30.326Z,2.20
2018-07-07T12:35:59.352Z,2.43
2018-07-07T12:38:28.386Z,1.93
2018-07-07T12:40:57.393Z,1.90
2018-07-07T12:43:26.470Z,1.87
2018-07-07T12:45:55.465Z,2.00
2018-07-07T12:48:24.751Z,2.20
2018-07-07T12:50:53.781Z,2.47
2018-07-07T12:53:22.750Z,2.40
2018-07-07T12:55:51.679Z,2.00
2018-07-07T12:58:20.635Z,2.00
2018-07-07T13:00:49.711Z,1.90
2018-07-07T13:03:18.757Z,2.27
2018-07-07T13:05:47.784Z,2.37
2018-07-07T13:08:16.734Z,1.90
2018-07-07T13:10:45.721Z,2.17
2018-07-07T13:13:14.700Z,2.43
2018-07-07T13:15:43.767Z,2.50
2018-07-07T13:18:13.637Z,2.03
2018-07-07T13:20:42.770Z,2.20
2018-07-07T13:23:11.527Z,2.00
2018-07-07T13:25:40.325Z,2.33
2018-07-07T13:28:09.681Z,1.70
2018-07-07T13:30:38.705Z,2.10
2018-07-07T13:33:07.700Z,2.00
2018-07-07T13:35:36.682Z,1.70
2018-07-07T13:38:05.787Z,1.80
2018-07-07T13:40:34.737Z,2.27
2018-07-07T13:43:03.725Z,2.03
2018-07-07T13:45:32.706Z,1.73
2018-07-07T13:48:01.847Z,2.20
2018-07-07T13:50:30.829Z,1.90
2018-07-07T13:52:59.853Z,1.90
2018-07-07T13:55:28.953Z,2.40
2018-07-07T13:57:58.008Z,2.10
2018-07-07T14:00:26.964Z,1.90
2018-07-07T14:02:55.943Z,1.87
2018-07-07T14:05:25.297Z,2.10
2018-07-07T14:07:54.323Z,2.00
2018-07-07T14:10:23.297Z,2.30
2018-07-07T14:12:52.392Z,1.93
2018-07-07T14:15:21.355Z,1.80
2018-07-07T14:17:50.313Z,1.83
2018-07-07T14:20:19.301Z,2.17
2018-07-07T14:22:48.333Z,1.90
2018-07-07T14:25:17.594Z,2.10
2018-07-07T14:27:46.589Z,2.13
2018-07-07T14:30:15.618Z,2.20
2018-07-07T14:32:44.639Z,1.67
2018-07-07T14:35:13.324Z,1.80
2018-07-07T14:37:42.614Z,2.10
2018-07-07T14:40:11.567Z,2.10
2018-07-07T14:42:49.295Z,2.10
2018-07-07T14:45:22.031Z,2.03
2018-07-07T14:47:52.043Z,2.00
2018-07-07T14:50:21.171Z,2.00
2018-07-07T14:52:50.183Z,1.97
2018-07-07T14:55:19.574Z,1.87
2018-07-07T14:57:48.749Z,1.70
2018-07-07T15:00:21.850Z,2.27
2018-07-07T15:02:51.917Z,1.80
2018-07-07T15:05:22.358Z,2.07
2018-07-07T15:07:51.814Z,2.17
2018-07-07T15:10:20.878Z,2.23
2018-07-07T15:12:49.849Z,2.23
2018-07-07T15:15:18.859Z,2.23
2018-07-07T15:17:47.899Z,2.53
2018-07-07T15:20:17.254Z,2.30
2018-07-07T15:22:46.360Z,2.00
2018-07-07T15:25:15.205Z,2.27
2018-07-07T15:27:44.224Z,2.13
2018-07-07T15:30:13.190Z,1.87
2018-07-07T15:32:42.259Z,2.10
2018-07-07T15:35:11.281Z,2.40
2018-07-07T15:37:40.264Z,1.77
2018-07-07T15:40:09.288Z,2.10
2018-07-07T15:42:38.268Z,2.10
2018-07-07T15:45:07.491Z,1.80
2018-07-07T15:47:36.525Z,2.10
2018-07-07T15:50:05.565Z,2.30
2018-07-07T15:52:34.683Z,2.33
2018-07-07T15:55:03.630Z,2.23
2018-07-07T15:57:33.548Z,2.20
2018-07-07T16:00:02.467Z,2.20
2018-07-07T16:02:31.510Z,2.37
2018-07-07T16:05:00.450Z,2.00
2018-07-07T16:07:29.555Z,1.97
2018-07-07T16:09:58.585Z,1.77
2018-07-07T16:12:27.788Z,1.90
2018-07-07T16:14:56.762Z,3.10
2018-07-07T16:17:25.754Z,2.60
2018-07-07T16:19:54.982Z,3.03
2018-07-07T16:22:23.937Z,3.33
2018-07-07T16:24:53.133Z,3.10
2018-07-07T16:27:22.196Z,2.43
2018-07-07T16:29:51.265Z,3.20
2018-07-07T16:32:20.310Z,3.50
2018-07-07T16:34:49.363Z,3.53
2018-07-07T16:37:18.260Z,4.70
2018-07-07T16:39:47.014Z,5.27
2018-07-07T16:42:16.000Z,8.03
2018-07-07T16:44:44.940Z,5.60
2018-07-07T16:47:14.320Z,4.77
2018-07-07T16:49:43.254Z,2.60
2018-07-07T16:52:12.343Z,2.23
2018-07-07T16:54:42.223Z,2.63
2018-07-07T16:57:12.742Z,2.47
2018-07-07T16:59:41.722Z,3.97
2018-07-07T17:02:10.814Z,3.00
2018-07-07T17:04:39.790Z,2.50
2018-07-07T17:07:08.882Z,2.80
2018-07-07T17:09:38.050Z,2.53
2018-07-07T17:12:07.414Z,1.97
2018-07-07T17:14:36.489Z,2.00
2018-07-07T17:17:05.489Z,2.03
2018-07-07T17:19:34.549Z,2.30
2018-07-07T17:22:04.010Z,2.17
2018-07-07T17:24:33.309Z,1.90
2018-07-07T17:27:02.362Z,2.00
2018-07-07T17:29:31.374Z,1.87
2018-07-07T17:32:00.130Z,1.70
2018-07-07T17:34:29.017Z,2.00
2018-07-07T17:36:58.012Z,2.10
2018-07-07T17:39:26.989Z,1.80
2018-07-07T17:41:55.963Z,2.20
2018-07-07T17:44:25.261Z,1.80
2018-07-07T17:46:54.273Z,1.50
2018-07-07T17:49:23.332Z,2.77
2018-07-07T17:51:52.247Z,1.90
2018-07-07T17:54:21.202Z,2.00
2018-07-07T17:56:50.284Z,1.73
2018-07-07T17:59:18.988Z,2.03
2018-07-07T18:01:47.928Z,2.00
2018-07-07T18:04:16.750Z,2.10
2018-07-07T18:06:45.620Z,1.90
2018-07-07T18:09:14.776Z,2.00
2018-07-07T18:11:43.680Z,2.30
2018-07-07T18:14:12.461Z,2.33
2018-07-07T18:16:42.709Z,3.23
2018-07-07T18:19:11.867Z,2.00
2018-07-07T18:21:40.871Z,2.37
2018-07-07T18:24:10.375Z,2.67
2018-07-07T18:26:39.375Z,2.30
2018-07-07T18:29:08.457Z,2.20
2018-07-07T18:31:37.435Z,2.10
2018-07-07T18:34:06.757Z,2.47
2018-07-07T18:36:35.698Z,2.20
2018-07-07T18:39:05.247Z,2.53
2018-07-07T18:41:34.195Z,2.60
2018-07-07T18:44:03.368Z,2.17
2018-07-07T18:46:32.668Z,2.60
2018-07-07T18:49:01.635Z,2.27
2018-07-07T18:51:30.619Z,2.30
2018-07-07T18:53:59.595Z,2.30
2018-07-07T18:56:28.783Z,2.53
2018-07-07T18:58:57.624Z,3.17
2018-07-07T19:01:26.907Z,2.13
2018-07-07T19:03:55.865Z,3.23
2018-07-07T19:06:24.837Z,2.50
2018-07-07T19:08:53.831Z,2.50
2018-07-07T19:11:23.161Z,2.50
2018-07-07T19:13:52.170Z,2.07
2018-07-07T19:16:21.141Z,2.70
2018-07-07T19:18:50.217Z,2.40
2018-07-07T19:21:24.654Z,3.40
2018-07-07T19:23:59.073Z,2.70
2018-07-07T19:26:33.522Z,2.00
2018-07-07T19:29:02.545Z,2.30
2018-07-07T19:31:35.780Z,2.33
2018-07-07T19:34:10.031Z,2.67
2018-07-07T19:36:45.472Z,2.27
2018-07-07T19:39:14.590Z,1.90
2018-07-07T19:41:43.866Z,2.20
2018-07-07T19:44:12.919Z,2.60
2018-07-07T19:46:41.922Z,2.37
2018-07-07T19:49:10.910Z,2.43
2018-07-07T19:51:39.943Z,2.20
2018-07-07T19:54:09.100Z,2.53
2018-07-07T19:56:38.077Z,2.20
2018-07-07T19:59:07.024Z,2.57
2018-07-07T20:01:36.435Z,2.50
2018-07-07T20:04:05.277Z,2.47
2018-07-07T20:06:34.263Z,2.33
2018-07-07T20:09:03.249Z,2.37
2018-07-07T20:11:32.266Z,2.07
2018-07-07T20:14:01.235Z,2.50
2018-07-07T20:16:41.653Z,1.97
2018-07-07T20:19:16.657Z,2.80
2018-07-07T20:21:48.550Z,2.40
2018-07-07T20:24:19.980Z,2.57
2018-07-07T20:26:54.392Z,2.23
2018-07-07T20:29:23.496Z,2.80
2018-07-07T20:31:53.847Z,2.73
2018-07-07T20:34:23.975Z,2.73
2018-07-07T20:36:53.450Z,2.67
2018-07-07T20:39:22.772Z,2.83
2018-07-07T20:41:52.482Z,2.63
2018-07-07T20:44:21.438Z,2.57
2018-07-07T20:46:50.648Z,2.80
2018-07-07T20:49:19.584Z,2.60
2018-07-07T20:51:48.881Z,2.53
2018-07-07T20:54:17.973Z,2.70
2018-07-07T20:56:46.944Z,2.73
2018-07-07T20:59:15.893Z,2.50
2018-07-07T21:01:44.897Z,2.90
2018-07-07T21:04:13.809Z,3.07
2018-07-07T21:06:42.958Z,2.97
2018-07-07T21:09:11.685Z,2.43
2018-07-07T21:11:40.531Z,2.63
2018-07-07T21:14:09.652Z,2.43
2018-07-07T21:16:38.746Z,3.07
2018-07-07T21:19:07.809Z,2.80
2018-07-07T21:21:36.870Z,2.57
2018-07-07T21:24:05.870Z,2.80
2018-07-07T21:26:34.897Z,2.30
2018-07-07T21:29:03.838Z,2.93
2018-07-07T21:31:32.841Z,3.00
2018-07-07T21:36:25.461Z,2.87
2018-07-07T21:38:54.441Z,3.00
2018-07-07T21:41:23.463Z,3.60
2018-07-07T21:43:52.781Z,2.70
2018-07-07T21:46:21.797Z,2.80
2018-07-07T21:48:50.887Z,3.00
2018-07-07T21:51:19.842Z,2.67
2018-07-07T21:53:48.851Z,2.97
2018-07-07T21:56:17.765Z,2.90
2018-07-07T21:58:46.725Z,3.30
2018-07-07T22:01:35.509Z,3.57
2018-07-07T22:04:10.054Z,3.60
2018-07-07T22:06:44.821Z,3.70
2018-07-07T22:09:14.078Z,3.37
2018-07-07T22:11:43.064Z,3.87
2018-07-07T22:14:12.040Z,3.53
2018-07-07T22:16:41.026Z,3.43
2018-07-07T22:19:10.103Z,3.67
2018-07-07T22:21:50.626Z,3.13
2018-07-07T22:24:19.654Z,3.63
2018-07-07T22:26:48.655Z,3.93
2018-07-07T22:29:17.870Z,3.30
2018-07-07T22:31:46.618Z,3.13
2018-07-07T22:34:15.479Z,3.87
2018-07-07T22:36:44.482Z,3.47
2018-07-07T22:39:13.521Z,3.40
2018-07-07T22:42:02.048Z,3.60
2018-07-07T22:44:31.530Z,3.30
2018-07-07T22:47:00.514Z,3.27
2018-07-07T22:49:30.114Z,3.70
2018-07-07T22:51:59.069Z,4.27
2018-07-07T22:54:28.158Z,4.03
2018-07-07T22:56:56.939Z,4.30
2018-07-07T22:59:25.869Z,3.67
2018-07-07T23:01:54.902Z,3.43
2018-07-07T23:04:23.992Z,4.23
2018-07-07T23:06:52.992Z,4.23
2018-07-07T23:09:21.946Z,4.23
2018-07-07T23:11:51.095Z,3.90
2018-07-07T23:14:20.039Z,4.20
2018-07-07T23:16:48.997Z,4.43
2018-07-07T23:19:18.183Z,4.10
2018-07-07T23:21:47.344Z,5.03
2018-07-07T23:24:16.386Z,4.20
2018-07-07T23:26:45.427Z,3.90
2018-07-07T23:29:14.224Z,3.90
2018-07-07T23:31:43.673Z,4.90
2018-07-07T23:34:12.716Z,4.17
2018-07-07T23:36:41.717Z,5.07
2018-07-07T23:39:10.702Z,4.80
2018-07-07T23:41:39.693Z,4.70
2018-07-07T23:44:08.631Z,4.47
2018-07-07T23:46:37.821Z,4.27
2018-07-07T23:49:06.869Z,4.10
2018-07-07T23:51:35.827Z,4.70
2018-07-07T23:54:04.874Z,4.93
2018-07-07T23:56:33.788Z,4.80
2018-07-07T23:59:02.840Z,4.77
